createdAt,value
2022-12-03T00:01:42.122Z,7.22
2022-12-03T00:04:44.787Z,6.82
2022-12-03T00:07:47.352Z,7.30
2022-12-03T00:10:50.122Z,6.80
2022-12-03T00:13:52.989Z,6.70
2022-12-03T00:16:55.623Z,7.20
2022-12-03T00:19:58.279Z,7.20
2022-12-03T00:23:01.215Z,6.60
2022-12-03T00:26:04.527Z,6.70
2022-12-03T00:29:07.834Z,6.90
2022-12-03T00:32:10.638Z,6.32
2022-12-03T00:35:14.311Z,6.43
2022-12-03T00:38:17.417Z,6.35
2022-12-03T00:41:20.237Z,6.60
2022-12-03T00:44:22.889Z,6.80
2022-12-03T00:47:25.390Z,6.97
2022-12-03T00:50:28.634Z,6.43
2022-12-03T00:53:31.464Z,6.93
2022-12-03T00:56:34.991Z,6.97
2022-12-03T00:59:38.222Z,6.93
2022-12-03T01:02:41.298Z,7.10
2022-12-03T01:05:44.041Z,7.43
2022-12-03T01:08:46.846Z,6.90
2022-12-03T01:11:49.003Z,7.28
2022-12-03T01:14:51.516Z,7.95
2022-12-03T01:17:54.182Z,6.97
2022-12-03T01:20:56.928Z,6.90
2022-12-03T01:24:00.124Z,7.68
2022-12-03T01:27:02.394Z,6.60
2022-12-03T01:30:04.912Z,6.32
2022-12-03T01:33:07.811Z,7.13
2022-12-03T01:36:11.898Z,6.53
2022-12-03T01:39:14.339Z,7.38
2022-12-03T01:42:17.295Z,7.22
2022-12-03T01:45:20.650Z,6.75
2022-12-03T01:48:24.145Z,7.07
2022-12-03T01:51:26.594Z,7.03
2022-12-03T01:54:29.124Z,7.20
2022-12-03T01:57:31.357Z,6.90
2022-12-03T02:00:33.524Z,7.00
2022-12-03T02:03:36.032Z,7.25
2022-12-03T02:06:38.615Z,7.22
2022-12-03T02:09:41.838Z,7.65
2022-12-03T02:12:44.312Z,8.10
2022-12-03T02:15:46.511Z,7.50
2022-12-03T02:18:49.040Z,7.80
2022-12-03T02:21:51.257Z,7.68
2022-12-03T02:24:54.090Z,7.68
2022-12-03T02:27:57.021Z,7.13
2022-12-03T02:30:59.910Z,7.18
2022-12-03T02:34:02.915Z,8.25
2022-12-03T02:37:05.708Z,7.22
2022-12-03T02:40:07.834Z,7.63
2022-12-03T02:43:10.426Z,7.50
2022-12-03T02:46:12.978Z,7.38
2022-12-03T02:49:15.456Z,7.80
2022-12-03T02:52:18.433Z,7.03
2022-12-03T02:55:21.576Z,7.63
2022-12-03T02:58:24.389Z,7.80
2022-12-03T03:01:27.210Z,7.40
2022-12-03T03:04:31.010Z,6.82
2022-12-03T03:07:33.495Z,7.22
2022-12-03T03:10:35.622Z,7.60
2022-12-03T03:13:37.659Z,7.97
2022-12-03T03:16:40.816Z,7.45
2022-12-03T03:19:44.103Z,7.78
2022-12-03T03:22:47.353Z,7.78
2022-12-03T03:25:50.600Z,7.68
2022-12-03T03:28:55.742Z,8.40
2022-12-03T03:31:58.635Z,8.00
2022-12-03T03:35:01.275Z,8.65
2022-12-03T03:38:04.205Z,8.93
2022-12-03T03:41:06.746Z,7.93
2022-12-03T03:44:09.617Z,8.43
2022-12-03T03:47:12.085Z,8.50
2022-12-03T03:50:14.256Z,7.72
2022-12-03T03:53:17.302Z,7.55
2022-12-03T03:56:20.759Z,7.85
2022-12-03T03:59:23.414Z,7.68
2022-12-03T04:02:26.014Z,7.90
2022-12-03T04:05:28.963Z,7.40
2022-12-03T04:08:31.428Z,7.80
2022-12-03T04:11:33.591Z,7.20
2022-12-03T04:14:36.565Z,7.10
2022-12-03T04:17:39.797Z,8.05
2022-12-03T04:20:44.236Z,7.90
2022-12-03T04:23:46.426Z,7.90
2022-12-03T04:26:49.043Z,7.53
2022-12-03T04:29:53.665Z,7.88
2022-12-03T04:32:58.068Z,7.70
2022-12-03T04:36:00.389Z,8.13
2022-12-03T04:39:03.262Z,7.80
2022-12-03T04:42:05.733Z,8.40
2022-12-03T04:45:08.145Z,8.10
2022-12-03T04:48:12.024Z,8.10
2022-12-03T04:51:14.298Z,7.70
2022-12-03T04:54:16.607Z,8.00
2022-12-03T04:57:19.968Z,8.18
2022-12-03T05:00:22.752Z,7.18
2022-12-03T05:03:24.953Z,7.22
2022-12-03T05:06:27.140Z,7.57
2022-12-03T05:09:29.853Z,7.75
2022-12-03T05:12:31.972Z,7.00
2022-12-03T05:15:34.586Z,7.40
2022-12-03T05:18:36.986Z,7.40
2022-12-03T05:21:39.198Z,7.30
2022-12-03T05:24:42.047Z,7.50
2022-12-03T05:27:44.903Z,6.93
2022-12-03T05:30:47.575Z,7.10
2022-12-03T05:33:50.324Z,7.85
2022-12-03T05:36:53.334Z,7.18
2022-12-03T05:39:56.274Z,7.10
2022-12-03T05:42:59.514Z,7.65
2022-12-03T05:46:02.649Z,7.78
2022-12-03T05:49:05.045Z,7.80
2022-12-03T05:52:07.212Z,7.82
2022-12-03T05:55:09.892Z,8.05
2022-12-03T05:58:12.823Z,7.43
2022-12-03T06:01:15.211Z,7.65
2022-12-03T06:04:17.869Z,7.93
2022-12-03T06:07:20.043Z,7.57
2022-12-03T06:10:22.957Z,7.35
2022-12-03T06:13:25.840Z,6.82
2022-12-03T06:16:28.683Z,6.53
2022-12-03T06:19:32.002Z,7.18
2022-12-03T06:22:35.390Z,7.05
2022-12-03T06:25:38.648Z,6.93
2022-12-03T06:28:41.105Z,7.13
2022-12-03T06:31:43.823Z,7.00
2022-12-03T06:34:46.972Z,6.63
2022-12-03T06:37:50.252Z,6.50
2022-12-03T06:40:52.677Z,7.47
2022-12-03T06:43:55.669Z,6.78
2022-12-03T06:46:58.264Z,7.20
2022-12-03T06:50:01.219Z,7.30
2022-12-03T06:53:03.645Z,7.32
2022-12-03T06:56:06.081Z,7.47
2022-12-03T06:59:09.365Z,7.68
2022-12-03T07:02:12.905Z,7.82
2022-12-03T07:05:15.611Z,7.53
2022-12-03T07:08:19.372Z,6.90
2022-12-03T07:11:21.822Z,7.18
2022-12-03T07:14:24.822Z,7.25
2022-12-03T07:17:27.525Z,7.40
2022-12-03T07:20:30.794Z,7.00
2022-12-03T07:23:33.662Z,6.85
2022-12-03T07:26:36.259Z,6.80
2022-12-03T07:29:39.154Z,6.78
2022-12-03T07:32:42.261Z,6.50
2022-12-03T07:35:45.188Z,7.05
2022-12-03T07:38:48.092Z,7.00
2022-12-03T07:41:50.623Z,6.68
2022-12-03T07:44:54.956Z,6.70
2022-12-03T07:47:58.034Z,6.95
2022-12-03T07:51:00.664Z,7.20
2022-12-03T07:54:03.262Z,7.15
2022-12-03T07:57:05.886Z,7.38
2022-12-03T08:00:09.472Z,7.10
2022-12-03T08:03:12.269Z,7.82
2022-12-03T08:06:14.930Z,7.70
2022-12-03T08:09:17.924Z,8.30
2022-12-03T08:12:20.771Z,7.32
2022-12-03T08:15:23.241Z,7.85
2022-12-03T08:18:25.631Z,7.80
2022-12-03T08:21:29.399Z,7.10
2022-12-03T08:24:33.041Z,7.90
2022-12-03T08:27:36.159Z,7.60
2022-12-03T08:30:39.049Z,7.30
2022-12-03T08:33:41.957Z,7.47
2022-12-03T08:36:44.983Z,7.80
2022-12-03T08:39:48.255Z,7.15
2022-12-03T08:42:50.908Z,7.80
2022-12-03T08:45:54.132Z,7.60
2022-12-03T08:48:57.015Z,7.90
2022-12-03T08:51:59.494Z,8.15
2022-12-03T08:55:02.306Z,8.25
2022-12-03T08:58:05.156Z,8.13
2022-12-03T09:01:07.076Z,8.07
2022-12-03T09:04:09.725Z,7.80
2022-12-03T09:07:12.536Z,8.65
2022-12-03T09:10:15.203Z,8.30
2022-12-03T09:13:17.732Z,8.73
2022-12-03T09:16:20.796Z,9.10
2022-12-03T09:19:24.007Z,8.98
2022-12-03T09:22:26.498Z,9.43
2022-12-03T09:25:29.596Z,9.88
2022-12-03T09:28:32.504Z,9.32
2022-12-03T09:31:35.408Z,8.88
2022-12-03T09:34:37.980Z,8.70
2022-12-03T09:37:40.334Z,9.18
2022-12-03T09:40:42.963Z,8.98
2022-12-03T09:47:07.807Z,9.23
2022-12-03T09:50:10.595Z,9.07
2022-12-03T09:53:13.189Z,9.40
2022-12-03T09:56:16.120Z,8.38
2022-12-03T09:59:19.681Z,9.10
2022-12-03T10:02:22.181Z,8.70
2022-12-03T10:05:25.034Z,9.63
2022-12-03T10:08:31.994Z,8.80
2022-12-03T10:11:35.414Z,9.70
2022-12-03T10:14:38.227Z,9.52
2022-12-03T10:17:40.776Z,9.50
2022-12-03T10:20:43.433Z,9.57
2022-12-03T10:23:48.339Z,10.38
2022-12-03T10:26:54.125Z,10.70
2022-12-03T10:29:56.311Z,10.10
2022-12-03T10:32:58.992Z,10.48
2022-12-03T10:36:01.580Z,10.15
2022-12-03T10:39:04.414Z,10.68
2022-12-03T10:42:07.284Z,10.68
2022-12-03T10:45:10.913Z,9.88
2022-12-03T10:48:13.733Z,9.95
2022-12-03T10:51:15.925Z,10.23
2022-12-03T10:54:18.625Z,10.43
2022-12-03T10:57:21.676Z,9.27
2022-12-03T11:00:24.126Z,9.98
2022-12-03T11:03:27.074Z,9.07
2022-12-03T11:06:29.743Z,9.63
2022-12-03T11:09:32.579Z,9.50
2022-12-03T11:12:35.130Z,9.38
2022-12-03T11:15:38.203Z,9.85
2022-12-03T11:18:41.031Z,9.25
2022-12-03T11:21:43.942Z,9.88
2022-12-03T11:24:46.817Z,9.93
2022-12-03T11:27:49.353Z,9.32
2022-12-03T11:30:52.028Z,9.55
2022-12-03T11:33:54.640Z,9.45
2022-12-03T11:37:01.837Z,9.82
2022-12-03T11:40:04.611Z,9.40
2022-12-03T11:43:07.772Z,9.95
2022-12-03T11:46:10.288Z,10.07
2022-12-03T11:49:13.235Z,9.95
2022-12-03T11:52:15.655Z,10.15
2022-12-03T11:55:18.563Z,9.88
2022-12-03T11:58:20.934Z,9.52
2022-12-03T12:01:23.577Z,9.07
2022-12-03T12:04:26.261Z,8.52
2022-12-03T12:07:28.952Z,8.30
2022-12-03T12:10:32.138Z,8.52
2022-12-03T12:13:35.040Z,8.13
2022-12-03T12:16:37.694Z,8.18
2022-12-03T12:19:39.937Z,8.07
2022-12-03T12:22:42.373Z,8.20
2022-12-03T12:25:48.241Z,7.35
2022-12-03T12:28:52.803Z,7.80
2022-12-03T12:31:55.187Z,8.27
2022-12-03T12:34:58.009Z,7.78
2022-12-03T12:38:00.726Z,7.72
2022-12-03T12:41:03.476Z,7.80
2022-12-03T12:44:06.308Z,7.55
2022-12-03T12:47:08.813Z,7.95
2022-12-03T12:50:11.478Z,7.65
2022-12-03T12:53:14.407Z,7.90
2022-12-03T12:56:17.572Z,8.27
2022-12-03T12:59:20.453Z,7.88
2022-12-03T13:02:23.121Z,7.90
2022-12-03T13:05:25.255Z,8.05
2022-12-03T13:08:27.868Z,7.70
2022-12-03T13:11:30.072Z,7.97
2022-12-03T13:14:33.088Z,7.38
2022-12-03T13:17:35.465Z,7.53
2022-12-03T13:20:38.483Z,7.07
2022-12-03T13:23:41.329Z,7.20
2022-12-03T13:26:44.609Z,7.28
2022-12-03T13:29:47.873Z,7.55
2022-12-03T13:32:50.698Z,7.25
2022-12-03T13:35:53.204Z,7.13
2022-12-03T13:38:55.784Z,6.90
2022-12-03T13:41:58.629Z,7.30
2022-12-03T13:45:01.372Z,7.30
2022-12-03T13:48:03.944Z,8.05
2022-12-03T13:51:06.772Z,7.90
2022-12-03T13:54:14.463Z,8.25
2022-12-03T13:57:18.482Z,8.10
2022-12-03T14:00:20.628Z,8.20
2022-12-03T14:03:23.531Z,9.00
2022-12-03T14:06:25.676Z,9.18
2022-12-03T14:09:28.279Z,8.68
2022-12-03T14:12:39.285Z,9.30
2022-12-03T14:15:50.155Z,8.57
2022-12-03T14:18:52.301Z,8.32
2022-12-03T14:21:54.852Z,8.30
2022-12-03T14:24:57.001Z,8.48
2022-12-03T14:28:03.667Z,8.38
2022-12-03T14:31:06.396Z,8.50
2022-12-03T14:34:14.497Z,7.75
2022-12-03T14:37:16.628Z,8.10
2022-12-03T14:40:21.782Z,7.97
2022-12-03T14:43:24.896Z,9.02
2022-12-03T14:46:27.852Z,8.18
2022-12-03T14:49:30.496Z,8.85
2022-12-03T14:52:34.911Z,8.88
2022-12-03T14:55:37.537Z,9.35
2022-12-03T14:58:40.312Z,9.25
2022-12-03T15:01:42.751Z,9.27
2022-12-03T15:04:46.704Z,9.15
2022-12-03T15:07:50.120Z,8.60
2022-12-03T15:14:08.518Z,8.75
2022-12-03T15:17:11.344Z,9.40
2022-12-03T15:20:14.400Z,8.95
2022-12-03T15:23:18.306Z,9.32
2022-12-03T15:26:20.812Z,9.15
2022-12-03T15:29:23.569Z,8.40
2022-12-03T15:32:27.234Z,8.68
2022-12-03T15:35:30.172Z,8.40
2022-12-03T15:38:32.341Z,8.50
2022-12-03T15:41:35.134Z,8.15
2022-12-03T15:44:37.687Z,8.23
2022-12-03T15:47:40.577Z,8.27
2022-12-03T15:50:42.998Z,8.55
2022-12-03T15:53:45.577Z,8.35
2022-12-03T15:56:51.593Z,8.15
2022-12-03T15:59:57.835Z,8.40
2022-12-03T16:03:00.474Z,7.90
2022-12-03T16:09:25.276Z,9.00
2022-12-03T16:12:29.636Z,8.63
2022-12-03T16:15:32.109Z,8.63
2022-12-03T16:18:34.285Z,8.60
2022-12-03T16:21:36.803Z,9.27
2022-12-03T16:24:39.401Z,9.25
2022-12-03T16:27:42.320Z,9.65
2022-12-03T16:30:45.136Z,10.10
2022-12-03T16:33:48.080Z,9.48
2022-12-03T16:36:50.793Z,9.85
2022-12-03T16:39:54.186Z,8.98
2022-12-03T16:42:57.214Z,9.50
2022-12-03T16:45:59.925Z,9.38
2022-12-03T16:49:02.647Z,9.60
2022-12-03T16:55:24.688Z,9.10
2022-12-03T16:58:27.902Z,10.02
2022-12-03T17:01:30.862Z,8.80
2022-12-03T17:04:33.473Z,9.25
2022-12-03T17:07:36.584Z,9.50
2022-12-03T17:10:39.480Z,9.85
2022-12-03T17:13:42.755Z,9.60
2022-12-03T17:16:45.478Z,9.85
2022-12-03T17:19:48.139Z,9.70
2022-12-03T17:22:50.806Z,10.57
2022-12-03T17:25:54.010Z,10.30
2022-12-03T17:28:57.083Z,10.20
2022-12-03T17:32:00.029Z,10.98
2022-12-03T17:35:03.567Z,10.57
2022-12-03T17:38:06.820Z,11.05
2022-12-03T17:41:09.667Z,10.88
2022-12-03T17:44:16.311Z,10.20
2022-12-03T17:47:21.528Z,10.30
2022-12-03T17:50:24.517Z,10.30
2022-12-03T17:53:27.079Z,11.30
2022-12-03T17:56:30.284Z,10.52
2022-12-03T17:59:33.521Z,10.57
2022-12-03T18:02:36.548Z,10.38
2022-12-03T18:05:39.571Z,10.88
2022-12-03T18:08:41.560Z,11.20
2022-12-03T18:11:44.679Z,10.73
2022-12-03T18:14:48.104Z,11.02
2022-12-03T18:17:51.153Z,11.68
2022-12-03T18:20:54.487Z,10.55
2022-12-03T18:23:57.552Z,11.40
2022-12-03T18:27:00.862Z,11.60
2022-12-03T18:30:03.501Z,12.10
2022-12-03T18:33:05.691Z,11.75
2022-12-03T18:36:13.545Z,12.25
2022-12-03T18:39:17.364Z,12.02
2022-12-03T18:42:19.304Z,12.35
2022-12-03T18:45:22.119Z,13.45
2022-12-03T18:48:24.723Z,12.27
2022-12-03T18:51:27.595Z,12.40
2022-12-03T18:54:30.719Z,10.55
2022-12-03T18:57:33.560Z,11.10
2022-12-03T19:00:36.690Z,10.57
2022-12-03T19:03:39.744Z,11.05
2022-12-03T19:06:42.564Z,11.15
2022-12-03T19:09:45.668Z,10.95
2022-12-03T19:12:48.800Z,11.32
2022-12-03T19:15:52.096Z,10.93
2022-12-03T19:18:54.695Z,10.90
2022-12-03T19:21:57.790Z,11.27
2022-12-03T19:25:00.687Z,11.27
2022-12-03T19:28:02.910Z,10.82
2022-12-03T19:31:05.673Z,11.55
2022-12-03T19:34:08.371Z,11.80
2022-12-03T19:37:10.739Z,11.52
2022-12-03T19:40:13.280Z,11.57
2022-12-03T19:43:16.541Z,12.13
2022-12-03T19:46:19.966Z,12.35
2022-12-03T19:49:22.424Z,12.23
2022-12-03T19:52:25.252Z,11.93
2022-12-03T19:55:28.355Z,12.10
2022-12-03T19:58:31.391Z,12.02
2022-12-03T20:01:34.123Z,11.63
2022-12-03T20:04:37.187Z,11.82
2022-12-03T20:07:39.842Z,10.93
2022-12-03T20:10:43.031Z,10.77
2022-12-03T20:13:45.916Z,11.55
2022-12-03T20:16:48.634Z,11.48
2022-12-03T20:19:51.217Z,10.57
2022-12-03T20:22:54.404Z,11.77
2022-12-03T20:25:57.351Z,10.77
2022-12-03T20:29:00.087Z,11.65
2022-12-03T20:32:03.227Z,11.00
2022-12-03T20:35:06.133Z,11.40
2022-12-03T20:38:09.116Z,11.85
2022-12-03T20:41:12.115Z,12.10
2022-12-03T20:44:14.765Z,11.52
2022-12-03T20:47:16.999Z,11.82
2022-12-03T20:50:19.611Z,11.50
2022-12-03T20:53:25.665Z,12.52
2022-12-03T20:56:27.590Z,11.85
2022-12-03T20:59:30.165Z,12.10
2022-12-03T21:02:32.658Z,11.93
2022-12-03T21:05:35.632Z,11.90
2022-12-03T21:08:42.368Z,11.30
2022-12-03T21:11:45.349Z,10.75
2022-12-03T21:14:48.513Z,11.82
2022-12-03T21:17:52.340Z,11.63
2022-12-03T21:20:55.369Z,11.30
2022-12-03T21:23:57.966Z,11.23
2022-12-03T21:27:00.500Z,11.20
2022-12-03T21:30:02.711Z,11.93
2022-12-03T21:33:04.932Z,11.63
2022-12-03T21:36:07.481Z,11.52
2022-12-03T21:39:10.236Z,11.68
2022-12-03T21:42:19.222Z,11.50
2022-12-03T21:45:35.466Z,11.70
2022-12-03T21:48:37.954Z,11.70
2022-12-03T21:51:40.494Z,11.82
2022-12-03T21:54:43.864Z,12.80
2022-12-03T21:57:47.074Z,12.63
2022-12-03T22:00:50.191Z,12.38
2022-12-03T22:03:52.538Z,12.57
2022-12-03T22:06:54.966Z,11.70
2022-12-03T22:09:58.158Z,12.32
2022-12-03T22:13:01.496Z,11.20
2022-12-03T22:16:04.758Z,10.73
2022-12-03T22:19:07.695Z,11.32
2022-12-03T22:22:10.287Z,11.63
2022-12-03T22:25:13.243Z,11.50
2022-12-03T22:28:16.702Z,12.07
2022-12-03T22:31:19.823Z,11.35
2022-12-03T22:34:22.706Z,12.45
2022-12-03T22:37:24.855Z,12.07
2022-12-03T22:40:27.680Z,11.90
2022-12-03T22:43:30.781Z,12.60
2022-12-03T22:46:34.457Z,12.95
2022-12-03T22:49:38.168Z,12.65
2022-12-03T22:52:40.751Z,12.88
2022-12-03T22:55:42.883Z,12.63
2022-12-03T22:58:45.505Z,13.05
2022-12-03T23:01:47.730Z,12.93
2022-12-03T23:04:50.442Z,13.13
2022-12-03T23:07:53.065Z,12.40
2022-12-03T23:10:55.210Z,12.32
2022-12-03T23:13:57.777Z,12.32
2022-12-03T23:17:00.176Z,12.45
2022-12-03T23:20:02.558Z,12.43
2022-12-03T23:23:05.348Z,11.73
2022-12-03T23:26:08.226Z,12.35
2022-12-03T23:29:10.323Z,12.45
2022-12-03T23:32:12.843Z,12.52
2022-12-03T23:35:15.384Z,12.32
2022-12-03T23:38:18.354Z,12.65
2022-12-03T23:41:21.339Z,12.73
2022-12-03T23:44:25.122Z,13.07
2022-12-03T23:47:28.766Z,12.73
2022-12-03T23:50:31.931Z,13.65
2022-12-03T23:53:34.602Z,13.07
2022-12-03T23:56:37.027Z,13.88
2022-12-03T23:59:39.192Z,14.20
